Custer, South Dakota
Current Conditions -  °F | °C
As of 1:53 PM on Saturday 22 Nov 2014 (Local Time) from KCUT Reporting Station
Clear Clear  
Wind Chill: 37°   Ceiling: Unl
Heat Index: 44°   Visibility: 10mi
Dew Point: 24°   Wind: 15mph
Humidity: 45%   Direction: 270°W
Pressure: 29.46"   Gusts: 28mph
Location:  43.77°N, 103.6°W
Report Text: KCUT 222053Z AUTO 27013G24KT 10SM CLR 07/M04 A2946 RMK AO2 PK WND 27030/2017 SLP977 T00671044 56022
Loading
Personal Weather Stations






























Interactive Weather Map New forecast layout! Learn more

10-Day Weather Forecast

Advertisements
Track Severe Weather on mobile